sensor_id;sensor_type;location;lat;lon;timestamp;P1;durP1;ratioP1;P2;durP2;ratioP2
85939;SDS011;76505;46.706;12.340;2024-03-17T00:00:32;2.225;;;0.7;;
85939;SDS011;76505;46.706;12.340;2024-03-17T00:01:31;3.3125;;;1.0875;;
85939;SDS011;76505;46.706;12.340;2024-03-17T00:02:31;3.975;;;1.05;;
85939;SDS011;76505;46.706;12.340;2024-03-17T00:03:37;4.225;;;0.8375000000000001;;
85939;SDS011;76505;46.706;12.340;2024-03-17T00:04:32;2.1125;;;0.725;;
85939;SDS011;76505;46.706;12.340;2024-03-17T00:05:31;3.4375;;;1.0625;;
85939;SDS011;76505;46.706;12.340;2024-03-17T00:06:31;5.1;;;0.825;;
85939;SDS011;76505;46.706;12.340;2024-03-17T00:07:31;3.9124999999999996;;;1.1375000000000002;;
85939;SDS011;76505;46.706;12.340;2024-03-17T00:08:31;3.9499999999999997;;;1.025;;
85939;SDS011;76505;46.706;12.340;2024-03-17T00:09:31;4.4625;;;0.9249999999999999;;
85939;SDS011;76505;46.706;12.340;2024-03-17T00:10:31;4.2125;;;1.1;;
85939;SDS011;76505;46.706;12.340;2024-03-17T00:11:31;3.5749999999999997;;;0.8375;;
85939;SDS011;76505;46.706;12.340;2024-03-17T00:12:31;2.825;;;0.8625;;
85939;SDS011;76505;46.706;12.340;2024-03-17T00:13:31;3.025;;;0.7625;;
85939;SDS011;76505;46.706;12.340;2024-03-17T00:14:32;3.65;;;0.8;;
85939;SDS011;76505;46.706;12.340;2024-03-17T00:15:31;4.1625;;;1.15;;
85939;SDS011;76505;46.706;12.340;2024-03-17T00:16:31;3.7375;;;1.1375000000000002;;
85939;SDS011;76505;46.706;12.340;2024-03-17T00:17:31;4.824999999999999;;;1.0750000000000002;;
85939;SDS011;76505;46.706;12.340;2024-03-17T00:18:31;5.85;;;0.95;;
85939;SDS011;76505;46.706;12.340;2024-03-17T00:19:31;4.300000000000001;;;1.1625;;
85939;SDS011;76505;46.706;12.340;2024-03-17T00:20:32;4.125;;;1.1;;
85939;SDS011;76505;46.706;12.340;2024-03-17T00:21:31;4.925;;;1.2374999999999998;;
85939;SDS011;76505;46.706;12.340;2024-03-17T00:22:35;5.5125;;;1.3875000000000002;;
85939;SDS011;76505;46.706;12.340;2024-03-17T00:23:31;4.8;;;1.0750000000000002;;
85939;SDS011;76505;46.706;12.340;2024-03-17T00:24:35;4.3375;;;1.25;;
85939;SDS011;76505;46.706;12.340;2024-03-17T00:25:31;4.7875;;;1.1624999999999999;;
85939;SDS011;76505;46.706;12.340;2024-03-17T00:26:31;3.825;;;0.925;;
85939;SDS011;76505;46.706;12.340;2024-03-17T00:27:31;4.85;;;0.9;;
85939;SDS011;76505;46.706;12.340;2024-03-17T00:28:31;2.8499999999999996;;;0.7124999999999999;;
85939;SDS011;76505;46.706;12.340;2024-03-17T00:29:31;3.4625000000000004;;;1.1;;
85939;SDS011;76505;46.706;12.340;2024-03-17T00:30:31;3.025;;;0.8375;;
85939;SDS011;76505;46.706;12.340;2024-03-17T00:31:32;4.6625;;;1.1124999999999998;;
85939;SDS011;76505;46.706;12.340;2024-03-17T00:32:31;6.2625;;;2.55;;
85939;SDS011;76505;46.706;12.340;2024-03-17T00:33:31;4.3;;;1.3;;
85939;SDS011;76505;46.706;12.340;2024-03-17T00:34:31;5.675000000000001;;;1.4625;;
85939;SDS011;76505;46.706;12.340;2024-03-17T00:35:31;4.2375;;;1.2625000000000002;;
85939;SDS011;76505;46.706;12.340;2024-03-17T00:36:31;4.4875;;;1.1125;;
85939;SDS011;76505;46.706;12.340;2024-03-17T00:37:31;3.9875;;;1.1125;;
85939;SDS011;76505;46.706;12.340;2024-03-17T00:38:31;5.275;;;1.0875000000000001;;
85939;SDS011;76505;46.706;12.340;2024-03-17T00:39:32;4.074999999999999;;;1.075;;
85939;SDS011;76505;46.706;12.340;2024-03-17T00:40:31;3.8875;;;1.1125;;
85939;SDS011;76505;46.706;12.340;2024-03-17T00:41:31;3.6875;;;0.875;;
85939;SDS011;76505;46.706;12.340;2024-03-17T00:42:36;3.6875;;;0.8875;;
85939;SDS011;76505;46.706;12.340;2024-03-17T00:43:31;3.4;;;0.7875000000000001;;
85939;SDS011;76505;46.706;12.340;2024-03-17T00:44:31;3.7125000000000004;;;0.9;;
85939;SDS011;76505;46.706;12.340;2024-03-17T00:45:31;3.6999999999999997;;;0.8875000000000001;;
85939;SDS011;76505;46.706;12.340;2024-03-17T00:46:31;5.6625000000000005;;;1.0250000000000001;;
85939;SDS011;76505;46.706;12.340;2024-03-17T00:47:31;2.8125;;;0.725;;
85939;SDS011;76505;46.706;12.340;2024-03-17T00:48:31;3.375;;;0.8875;;
85939;SDS011;76505;46.706;12.340;2024-03-17T00:49:31;4.0249999999999995;;;0.8875;;
85939;SDS011;76505;46.706;12.340;2024-03-17T00:50:31;4.175000000000001;;;1.1624999999999999;;
85939;SDS011;76505;46.706;12.340;2024-03-17T00:51:31;4.2625;;;1.0875000000000001;;
85939;SDS011;76505;46.706;12.340;2024-03-17T00:52:32;3.6;;;1.0125;;
85939;SDS011;76505;46.706;12.340;2024-03-17T00:53:31;6.7875;;;0.9125000000000001;;
85939;SDS011;76505;46.706;12.340;2024-03-17T00:54:32;4.6625;;;1.0125000000000002;;
85939;SDS011;76505;46.706;12.340;2024-03-17T00:55:31;5.1375;;;1.375;;
85939;SDS011;76505;46.706;12.340;2024-03-17T00:56:31;8.65;;;1.8875;;
85939;SDS011;76505;46.706;12.340;2024-03-17T00:57:31;4.5125;;;1.1375;;
85939;SDS011;76505;46.706;12.340;2024-03-17T00:58:31;4.225;;;1.15;;
85939;SDS011;76505;46.706;12.340;2024-03-17T00:59:31;3.775;;;0.925;;
85939;SDS011;76505;46.706;12.340;2024-03-17T01:00:33;3.3;;;0.9375;;
85939;SDS011;76505;46.706;12.340;2024-03-17T01:01:31;6.925000000000001;;;1.0875;;
85939;SDS011;76505;46.706;12.340;2024-03-17T01:02:31;4.4624999999999995;;;0.95;;
85939;SDS011;76505;46.706;12.340;2024-03-17T01:03:31;4.55;;;1.175;;
85939;SDS011;76505;46.706;12.340;2024-03-17T01:04:34;2.75;;;0.7625;;
85939;SDS011;76505;46.706;12.340;2024-03-17T01:05:31;5.5625;;;1.125;;
85939;SDS011;76505;46.706;12.340;2024-03-17T01:06:34;5.175;;;1.25;;
85939;SDS011;76505;46.706;12.340;2024-03-17T01:07:31;4.3125;;;0.85;;
85939;SDS011;76505;46.706;12.340;2024-03-17T01:08:32;2.2125;;;0.7125;;
85939;SDS011;76505;46.706;12.340;2024-03-17T01:09:31;5.8875;;;1.2875;;
85939;SDS011;76505;46.706;12.340;2024-03-17T01:10:31;3.825;;;0.8625;;
85939;SDS011;76505;46.706;12.340;2024-03-17T01:11:31;3.275;;;0.875;;
85939;SDS011;76505;46.706;12.340;2024-03-17T01:12:31;3.6375;;;0.775;;
85939;SDS011;76505;46.706;12.340;2024-03-17T01:13:31;3.6624999999999996;;;0.8250000000000001;;
85939;SDS011;76505;46.706;12.340;2024-03-17T01:14:31;4.1625;;;1.0750000000000002;;
85939;SDS011;76505;46.706;12.340;2024-03-17T01:15:31;3.7;;;0.8875;;
85939;SDS011;76505;46.706;12.340;2024-03-17T01:16:31;3.65;;;0.775;;
85939;SDS011;76505;46.706;12.340;2024-03-17T01:17:31;1.6125;;;0.6625;;
85939;SDS011;76505;46.706;12.340;2024-03-17T01:18:32;5.7125;;;0.9;;
85939;SDS011;76505;46.706;12.340;2024-03-17T01:19:31;5.9125000000000005;;;0.975;;
85939;SDS011;76505;46.706;12.340;2024-03-17T01:20:32;3.375;;;1.05;;
85939;SDS011;76505;46.706;12.340;2024-03-17T01:21:32;1.7375;;;0.5625;;
85939;SDS011;76505;46.706;12.340;2024-03-17T01:22:31;3.45;;;1.125;;
85939;SDS011;76505;46.706;12.340;2024-03-17T01:23:31;7.15;;;1.0750000000000002;;
85939;SDS011;76505;46.706;12.340;2024-03-17T01:24:31;3.7625;;;0.725;;
85939;SDS011;76505;46.706;12.340;2024-03-17T01:25:33;5.4125;;;1.0125;;
85939;SDS011;76505;46.706;12.340;2024-03-17T01:26:31;4.012499999999999;;;0.8;;
85939;SDS011;76505;46.706;12.340;2024-03-17T01:27:31;3.1125;;;0.7375;;
85939;SDS011;76505;46.706;12.340;2024-03-17T01:28:31;3.625;;;1.0125000000000002;;
85939;SDS011;76505;46.706;12.340;2024-03-17T01:29:31;6.45;;;1.6125;;
85939;SDS011;76505;46.706;12.340;2024-03-17T01:30:33;2.8375000000000004;;;0.6625;;
85939;SDS011;76505;46.706;12.340;2024-03-17T01:31:31;3.9250000000000003;;;0.875;;
85939;SDS011;76505;46.706;12.340;2024-03-17T01:32:31;2.7125;;;0.6875;;
85939;SDS011;76505;46.706;12.340;2024-03-17T01:33:31;4.4624999999999995;;;1.1500000000000001;;
85939;SDS011;76505;46.706;12.340;2024-03-17T01:34:31;3.0;;;0.7625;;
85939;SDS011;76505;46.706;12.340;2024-03-17T01:35:31;3.925;;;0.95;;
85939;SDS011;76505;46.706;12.340;2024-03-17T01:36:31;2.5;;;0.8125;;
85939;SDS011;76505;46.706;12.340;2024-03-17T01:37:32;2.8;;;0.7875000000000001;;
85939;SDS011;76505;46.706;12.340;2024-03-17T01:38:32;3.9625000000000004;;;0.8875;;
85939;SDS011;76505;46.706;12.340;2024-03-17T01:39:32;3.2750000000000004;;;0.7875000000000001;;
85939;SDS011;76505;46.706;12.340;2024-03-17T01:40:31;3.9;;;0.8625;;
85939;SDS011;76505;46.706;12.340;2024-03-17T01:41:32;3.55;;;1.0625;;
85939;SDS011;76505;46.706;12.340;2024-03-17T01:42:31;2.1499999999999995;;;0.7625;;
85939;SDS011;76505;46.706;12.340;2024-03-17T01:43:31;3.8125;;;0.975;;
85939;SDS011;76505;46.706;12.340;2024-03-17T01:44:31;3.0875000000000004;;;0.775;;
85939;SDS011;76505;46.706;12.340;2024-03-17T01:45:32;3.175;;;0.825;;
85939;SDS011;76505;46.706;12.340;2024-03-17T01:46:31;3.5625;;;0.9375;;
85939;SDS011;76505;46.706;12.340;2024-03-17T01:47:31;3.775;;;0.6875;;
85939;SDS011;76505;46.706;12.340;2024-03-17T01:48:31;3.2625;;;0.8375;;
85939;SDS011;76505;46.706;12.340;2024-03-17T01:49:31;2.2125000000000004;;;0.5375;;
85939;SDS011;76505;46.706;12.340;2024-03-17T01:50:33;3.55;;;0.7875000000000001;;
85939;SDS011;76505;46.706;12.340;2024-03-17T01:51:31;3.275;;;0.7;;
85939;SDS011;76505;46.706;12.340;2024-03-17T01:52:31;2.8625;;;0.8375;;
85939;SDS011;76505;46.706;12.340;2024-03-17T01:53:31;3.25;;;0.8125;;
85939;SDS011;76505;46.706;12.340;2024-03-17T01:54:31;3.7375;;;0.9624999999999999;;
85939;SDS011;76505;46.706;12.340;2024-03-17T01:55:31;3.7375;;;0.8625;;
85939;SDS011;76505;46.706;12.340;2024-03-17T01:56:31;4.6;;;0.9625;;
85939;SDS011;76505;46.706;12.340;2024-03-17T01:57:31;4.0875;;;0.9875;;
85939;SDS011;76505;46.706;12.340;2024-03-17T01:58:31;2.7625;;;0.8875000000000001;;
85939;SDS011;76505;46.706;12.340;2024-03-17T01:59:31;5.5625;;;1.0375;;
85939;SDS011;76505;46.706;12.340;2024-03-17T02:00:34;3.3375;;;1.0125;;
85939;SDS011;76505;46.706;12.340;2024-03-17T02:01:31;4.550000000000001;;;0.825;;
85939;SDS011;76505;46.706;12.340;2024-03-17T02:02:31;2.1875;;;0.6124999999999999;;
85939;SDS011;76505;46.706;12.340;2024-03-17T02:03:31;4.5249999999999995;;;0.975;;
85939;SDS011;76505;46.706;12.340;2024-03-17T02:04:31;3.2125;;;1.125;;
85939;SDS011;76505;46.706;12.340;2024-03-17T02:05:31;3.675;;;0.8375;;
85939;SDS011;76505;46.706;12.340;2024-03-17T02:06:31;3.3875;;;1.025;;
85939;SDS011;76505;46.706;12.340;2024-03-17T02:07:31;3.2375;;;0.9125000000000001;;
85939;SDS011;76505;46.706;12.340;2024-03-17T02:08:45;3.7125;;;0.775;;
85939;SDS011;76505;46.706;12.340;2024-03-17T02:09:31;3.1500000000000004;;;0.8250000000000001;;
85939;SDS011;76505;46.706;12.340;2024-03-17T02:10:31;2.6375;;;0.6875;;
85939;SDS011;76505;46.706;12.340;2024-03-17T02:11:32;2.925;;;0.8875;;
85939;SDS011;76505;46.706;12.340;2024-03-17T02:12:31;2.9250000000000003;;;0.8625;;
85939;SDS011;76505;46.706;12.340;2024-03-17T02:13:31;4.65;;;0.675;;
85939;SDS011;76505;46.706;12.340;2024-03-17T02:14:31;3.5125;;;0.8125;;
85939;SDS011;76505;46.706;12.340;2024-03-17T02:15:31;2.4625000000000004;;;0.625;;
85939;SDS011;76505;46.706;12.340;2024-03-17T02:16:32;2.9375;;;0.9;;
85939;SDS011;76505;46.706;12.340;2024-03-17T02:17:31;2.7;;;0.6124999999999999;;
85939;SDS011;76505;46.706;12.340;2024-03-17T02:18:31;2.0;;;0.5625;;
85939;SDS011;76505;46.706;12.340;2024-03-17T02:19:31;2.4250000000000003;;;0.6125;;
85939;SDS011;76505;46.706;12.340;2024-03-17T02:21:00;2.5375;;;0.42500000000000004;;
85939;SDS011;76505;46.706;12.340;2024-03-17T02:21:31;1.7375;;;0.5625;;
85939;SDS011;76505;46.706;12.340;2024-03-17T02:22:31;2.425;;;0.6375;;
85939;SDS011;76505;46.706;12.340;2024-03-17T02:23:33;2.975;;;0.8500000000000001;;
85939;SDS011;76505;46.706;12.340;2024-03-17T02:24:31;1.9000000000000001;;;0.5249999999999999;;
85939;SDS011;76505;46.706;12.340;2024-03-17T02:25:31;2.8125;;;0.6875;;
85939;SDS011;76505;46.706;12.340;2024-03-17T02:26:31;1.9375;;;0.7;;
85939;SDS011;76505;46.706;12.340;2024-03-17T02:27:32;1.9500000000000002;;;0.5375000000000001;;
85939;SDS011;76505;46.706;12.340;2024-03-17T02:28:37;2.2625;;;0.42500000000000004;;
85939;SDS011;76505;46.706;12.340;2024-03-17T02:29:31;2.4375;;;0.7375;;
85939;SDS011;76505;46.706;12.340;2024-03-17T02:30:36;3.625;;;0.775;;
85939;SDS011;76505;46.706;12.340;2024-03-17T02:31:31;2.1875;;;0.45;;
85939;SDS011;76505;46.706;12.340;2024-03-17T02:32:31;2.5999999999999996;;;0.6;;
85939;SDS011;76505;46.706;12.340;2024-03-17T02:33:31;3.25;;;0.7375;;
85939;SDS011;76505;46.706;12.340;2024-03-17T02:34:31;2.9124999999999996;;;0.625;;
85939;SDS011;76505;46.706;12.340;2024-03-17T02:35:31;1.2750000000000001;;;0.5125000000000001;;
85939;SDS011;76505;46.706;12.340;2024-03-17T02:36:32;2.8;;;0.6624999999999999;;
85939;SDS011;76505;46.706;12.340;2024-03-17T02:37:31;3.1375;;;0.625;;
85939;SDS011;76505;46.706;12.340;2024-03-17T02:39:40;2.025;;;0.7;;
85939;SDS011;76505;46.706;12.340;2024-03-17T02:40:31;5.1875;;;0.7749999999999999;;
85939;SDS011;76505;46.706;12.340;2024-03-17T02:41:31;1.8625;;;0.4875;;
85939;SDS011;76505;46.706;12.340;2024-03-17T02:42:31;2.5;;;0.55;;
85939;SDS011;76505;46.706;12.340;2024-03-17T02:43:31;3.5250000000000004;;;0.775;;
85939;SDS011;76505;46.706;12.340;2024-03-17T02:44:31;2.4875;;;0.7875;;
85939;SDS011;76505;46.706;12.340;2024-03-17T02:45:32;3.0749999999999997;;;0.6875;;
85939;SDS011;76505;46.706;12.340;2024-03-17T02:46:31;1.775;;;0.5375000000000001;;
85939;SDS011;76505;46.706;12.340;2024-03-17T02:47:31;1.5625;;;0.4125;;
85939;SDS011;76505;46.706;12.340;2024-03-17T02:48:31;4.637499999999999;;;0.8;;
85939;SDS011;76505;46.706;12.340;2024-03-17T02:49:37;2.2875;;;0.5874999999999999;;
85939;SDS011;76505;46.706;12.340;2024-03-17T02:50:32;2.975;;;0.8625;;
85939;SDS011;76505;46.706;12.340;2024-03-17T02:51:31;4.5;;;1.0625;;
85939;SDS011;76505;46.706;12.340;2024-03-17T02:52:31;3.75;;;1.15;;
85939;SDS011;76505;46.706;12.340;2024-03-17T02:53:31;3.7249999999999996;;;1.2625000000000002;;
85939;SDS011;76505;46.706;12.340;2024-03-17T02:54:31;4.525;;;0.9375;;
85939;SDS011;76505;46.706;12.340;2024-03-17T02:55:31;4.612500000000001;;;1.05;;
85939;SDS011;76505;46.706;12.340;2024-03-17T02:56:31;4.3375;;;0.8375;;
85939;SDS011;76505;46.706;12.340;2024-03-17T02:57:32;2.6624999999999996;;;0.75;;
85939;SDS011;76505;46.706;12.340;2024-03-17T02:58:31;3.7;;;0.9875;;
85939;SDS011;76505;46.706;12.340;2024-03-17T02:59:49;3.2625;;;0.775;;
85939;SDS011;76505;46.706;12.340;2024-03-17T03:00:50;2.625;;;0.55;;
85939;SDS011;76505;46.706;12.340;2024-03-17T03:01:49;5.625;;;0.9125;;
85939;SDS011;76505;46.706;12.340;2024-03-17T03:02:49;3.45;;;0.725;;
85939;SDS011;76505;46.706;12.340;2024-03-17T03:03:49;4.0;;;1.1375;;
85939;SDS011;76505;46.706;12.340;2024-03-17T03:04:49;5.675000000000001;;;1.1;;
85939;SDS011;76505;46.706;12.340;2024-03-17T03:05:49;4.5625;;;1.2;;
85939;SDS011;76505;46.706;12.340;2024-03-17T03:06:49;4.387499999999999;;;0.8;;
85939;SDS011;76505;46.706;12.340;2024-03-17T03:07:49;2.95;;;0.875;;
85939;SDS011;76505;46.706;12.340;2024-03-17T03:08:50;2.85;;;0.625;;
85939;SDS011;76505;46.706;12.340;2024-03-17T03:09:50;3.2625;;;0.9;;
85939;SDS011;76505;46.706;12.340;2024-03-17T03:10:49;2.4124999999999996;;;0.5874999999999999;;
85939;SDS011;76505;46.706;12.340;2024-03-17T03:11:49;2.375;;;0.625;;
85939;SDS011;76505;46.706;12.340;2024-03-17T03:12:49;2.7625;;;0.7124999999999999;;
85939;SDS011;76505;46.706;12.340;2024-03-17T03:13:49;2.8249999999999997;;;0.6499999999999999;;
85939;SDS011;76505;46.706;12.340;2024-03-17T03:14:49;3.0250000000000004;;;0.75;;
85939;SDS011;76505;46.706;12.340;2024-03-17T03:15:50;1.0;;;0.41250000000000003;;
85939;SDS011;76505;46.706;12.340;2024-03-17T03:16:49;3.3375000000000004;;;0.55;;
85939;SDS011;76505;46.706;12.340;2024-03-17T03:17:49;3.9625;;;0.8625;;
85939;SDS011;76505;46.706;12.340;2024-03-17T03:18:50;3.3125;;;0.8125;;
85939;SDS011;76505;46.706;12.340;2024-03-17T03:19:49;1.35;;;0.42500000000000004;;
85939;SDS011;76505;46.706;12.340;2024-03-17T03:20:50;2.0875;;;0.8500000000000001;;
85939;SDS011;76505;46.706;12.340;2024-03-17T03:21:49;2.9625000000000004;;;0.75;;
85939;SDS011;76505;46.706;12.340;2024-03-17T03:22:49;1.425;;;0.6499999999999999;;
85939;SDS011;76505;46.706;12.340;2024-03-17T03:23:49;1.775;;;0.45;;
85939;SDS011;76505;46.706;12.340;2024-03-17T03:24:51;1.6375;;;0.4875;;
85939;SDS011;76505;46.706;12.340;2024-03-17T03:25:54;0.5625;;;0.3625;;
85939;SDS011;76505;46.706;12.340;2024-03-17T03:26:49;3.3;;;0.7;;
85939;SDS011;76505;46.706;12.340;2024-03-17T03:27:49;1.65;;;0.575;;
85939;SDS011;76505;46.706;12.340;2024-03-17T03:28:50;0.9375;;;0.425;;
85939;SDS011;76505;46.706;12.340;2024-03-17T03:29:50;1.975;;;0.55;;
85939;SDS011;76505;46.706;12.340;2024-03-17T03:30:49;3.025;;;0.6375;;
85939;SDS011;76505;46.706;12.340;2024-03-17T03:31:49;2.0375;;;0.3375;;
85939;SDS011;76505;46.706;12.340;2024-03-17T03:32:49;1.5;;;0.5125;;
85939;SDS011;76505;46.706;12.340;2024-03-17T03:33:49;0.33749999999999997;;;0.26249999999999996;;
85939;SDS011;76505;46.706;12.340;2024-03-17T03:34:49;1.85;;;0.45000000000000007;;
85939;SDS011;76505;46.706;12.340;2024-03-17T03:35:50;2.45;;;0.6125;;
85939;SDS011;76505;46.706;12.340;2024-03-17T03:36:49;5.1;;;0.75;;
85939;SDS011;76505;46.706;12.340;2024-03-17T03:37:49;2.275;;;0.7;;
85939;SDS011;76505;46.706;12.340;2024-03-17T03:38:49;4.15;;;0.7625;;
85939;SDS011;76505;46.706;12.340;2024-03-17T03:39:50;2.2125;;;0.7124999999999999;;
85939;SDS011;76505;46.706;12.340;2024-03-17T03:40:49;2.2249999999999996;;;0.5625;;
85939;SDS011;76505;46.706;12.340;2024-03-17T03:41:49;1.9125;;;0.5375000000000001;;
85939;SDS011;76505;46.706;12.340;2024-03-17T03:42:49;2.8875;;;0.8;;
85939;SDS011;76505;46.706;12.340;2024-03-17T03:43:49;2.375;;;0.5249999999999999;;
85939;SDS011;76505;46.706;12.340;2024-03-17T03:44:49;1.4125;;;0.32499999999999996;;
85939;SDS011;76505;46.706;12.340;2024-03-17T03:45:49;1.4875;;;0.4875;;
85939;SDS011;76505;46.706;12.340;2024-03-17T03:46:49;3.9375000000000004;;;0.6125;;
85939;SDS011;76505;46.706;12.340;2024-03-17T03:47:49;2.625;;;0.775;;
85939;SDS011;76505;46.706;12.340;2024-03-17T03:48:49;2.725;;;0.6;;
85939;SDS011;76505;46.706;12.340;2024-03-17T03:49:49;2.325;;;0.675;;
85939;SDS011;76505;46.706;12.340;2024-03-17T03:50:50;1.325;;;0.4;;
85939;SDS011;76505;46.706;12.340;2024-03-17T03:51:49;2.525;;;0.6375;;
85939;SDS011;76505;46.706;12.340;2024-03-17T03:52:50;1.475;;;0.4625;;
85939;SDS011;76505;46.706;12.340;2024-03-17T03:53:50;1.3875000000000002;;;0.5;;
85939;SDS011;76505;46.706;12.340;2024-03-17T03:54:50;2.4375;;;0.7;;
85939;SDS011;76505;46.706;12.340;2024-03-17T03:55:49;3.1875;;;0.6625;;
85939;SDS011;76505;46.706;12.340;2024-03-17T03:56:49;3.2;;;0.6375;;
85939;SDS011;76505;46.706;12.340;2024-03-17T03:57:52;3.6;;;0.8625;;
85939;SDS011;76505;46.706;12.340;2024-03-17T03:58:50;3.375;;;0.5125;;
85939;SDS011;76505;46.706;12.340;2024-03-17T03:59:49;3.0125;;;0.55;;
85939;SDS011;76505;46.706;12.340;2024-03-17T04:00:49;3.5875;;;0.6625;;
85939;SDS011;76505;46.706;12.340;2024-03-17T04:01:49;4.5625;;;0.7;;
85939;SDS011;76505;46.706;12.340;2024-03-17T04:02:50;2.45;;;0.525;;
85939;SDS011;76505;46.706;12.340;2024-03-17T04:03:49;3.0125;;;0.6375;;
85939;SDS011;76505;46.706;12.340;2024-03-17T04:04:49;1.5500000000000003;;;0.3625;;
85939;SDS011;76505;46.706;12.340;2024-03-17T04:05:49;1.7875;;;0.7625;;
85939;SDS011;76505;46.706;12.340;2024-03-17T04:06:49;1.2;;;0.4125;;
85939;SDS011;76505;46.706;12.340;2024-03-17T04:07:49;2.375;;;0.5874999999999999;;
85939;SDS011;76505;46.706;12.340;2024-03-17T04:08:49;2.4625000000000004;;;0.675;;
85939;SDS011;76505;46.706;12.340;2024-03-17T04:09:49;0.6375;;;0.375;;
85939;SDS011;76505;46.706;12.340;2024-03-17T04:10:49;2.1999999999999997;;;0.575;;
85939;SDS011;76505;46.706;12.340;2024-03-17T04:11:50;1.9250000000000003;;;0.5625;;
85939;SDS011;76505;46.706;12.340;2024-03-17T04:12:49;2.3;;;0.6625;;
85939;SDS011;76505;46.706;12.340;2024-03-17T04:13:49;2.6499999999999995;;;0.7;;
85939;SDS011;76505;46.706;12.340;2024-03-17T04:14:53;1.85;;;0.48750000000000004;;
85939;SDS011;76505;46.706;12.340;2024-03-17T04:15:50;1.7999999999999998;;;0.5;;
85939;SDS011;76505;46.706;12.340;2024-03-17T04:16:50;1.85;;;0.5249999999999999;;
85939;SDS011;76505;46.706;12.340;2024-03-17T04:17:49;2.6;;;0.5125;;
85939;SDS011;76505;46.706;12.340;2024-03-17T04:18:49;2.1375;;;0.7250000000000001;;
85939;SDS011;76505;46.706;12.340;2024-03-17T04:19:49;3.5250000000000004;;;0.6749999999999999;;
85939;SDS011;76505;46.706;12.340;2024-03-17T04:20:49;3.2625;;;0.75;;
85939;SDS011;76505;46.706;12.340;2024-03-17T04:21:49;2.625;;;0.6125;;
85939;SDS011;76505;46.706;12.340;2024-03-17T04:22:49;1.375;;;0.4125;;
85939;SDS011;76505;46.706;12.340;2024-03-17T04:23:49;2.125;;;0.44999999999999996;;
85939;SDS011;76505;46.706;12.340;2024-03-17T04:24:53;4.7375;;;0.6624999999999999;;
85939;SDS011;76505;46.706;12.340;2024-03-17T04:25:50;3.9;;;1.0;;
85939;SDS011;76505;46.706;12.340;2024-03-17T04:26:49;4.575;;;1.1875;;
85939;SDS011;76505;46.706;12.340;2024-03-17T04:27:49;5.7875;;;1.3624999999999998;;
85939;SDS011;76505;46.706;12.340;2024-03-17T04:28:49;2.6624999999999996;;;0.925;;
85939;SDS011;76505;46.706;12.340;2024-03-17T04:29:49;2.325;;;0.75;;
85939;SDS011;76505;46.706;12.340;2024-03-17T04:30:49;2.9875;;;0.75;;
85939;SDS011;76505;46.706;12.340;2024-03-17T04:31:49;3.2375;;;0.7875000000000001;;
85939;SDS011;76505;46.706;12.340;2024-03-17T04:32:50;2.4;;;0.575;;
85939;SDS011;76505;46.706;12.340;2024-03-17T04:33:49;3.5375;;;0.9;;
85939;SDS011;76505;46.706;12.340;2024-03-17T04:34:49;2.4125;;;0.575;;
85939;SDS011;76505;46.706;12.340;2024-03-17T04:35:49;3.2375;;;0.8500000000000001;;
85939;SDS011;76505;46.706;12.340;2024-03-17T04:36:49;3.0375000000000005;;;0.8375;;
85939;SDS011;76505;46.706;12.340;2024-03-17T04:37:49;3.25;;;1.375;;
85939;SDS011;76505;46.706;12.340;2024-03-17T04:38:49;3.1375;;;0.6499999999999999;;
85939;SDS011;76505;46.706;12.340;2024-03-17T04:39:49;3.95;;;1.2125;;
85939;SDS011;76505;46.706;12.340;2024-03-17T04:40:49;3.8125;;;0.8;;
85939;SDS011;76505;46.706;12.340;2024-03-17T04:41:50;4.1875;;;0.8;;
85939;SDS011;76505;46.706;12.340;2024-03-17T04:42:50;1.3125;;;0.575;;
85939;SDS011;76505;46.706;12.340;2024-03-17T04:43:49;2.7249999999999996;;;0.75;;
85939;SDS011;76505;46.706;12.340;2024-03-17T04:44:49;3.8249999999999997;;;0.625;;
85939;SDS011;76505;46.706;12.340;2024-03-17T04:45:50;3.2874999999999996;;;0.9;;
85939;SDS011;76505;46.706;12.340;2024-03-17T04:46:49;3.3625;;;0.9625;;
85939;SDS011;76505;46.706;12.340;2024-03-17T04:47:49;3.475;;;0.8125;;
85939;SDS011;76505;46.706;12.340;2024-03-17T04:48:59;4.387499999999999;;;0.75;;
85939;SDS011;76505;46.706;12.340;2024-03-17T04:49:50;2.3499999999999996;;;0.5625;;
85939;SDS011;76505;46.706;12.340;2024-03-17T04:50:49;3.525;;;0.8125;;
85939;SDS011;76505;46.706;12.340;2024-03-17T04:51:50;3.9375;;;0.8250000000000001;;
85939;SDS011;76505;46.706;12.340;2024-03-17T04:52:49;2.1875;;;0.6375;;
85939;SDS011;76505;46.706;12.340;2024-03-17T04:53:49;2.85;;;0.825;;
85939;SDS011;76505;46.706;12.340;2024-03-17T04:54:49;3.15;;;0.75;;
85939;SDS011;76505;46.706;12.340;2024-03-17T04:55:57;3.8875;;;0.6;;
85939;SDS011;76505;46.706;12.340;2024-03-17T04:56:49;2.6875;;;0.775;;
85939;SDS011;76505;46.706;12.340;2024-03-17T04:57:49;5.987499999999999;;;1.2;;
85939;SDS011;76505;46.706;12.340;2024-03-17T04:58:49;4.7375;;;1.2375;;
85939;SDS011;76505;46.706;12.340;2024-03-17T04:59:49;4.55;;;1.2375;;
85939;SDS011;76505;46.706;12.340;2024-03-17T05:00:49;5.3125;;;1.3625;;
85939;SDS011;76505;46.706;12.340;2024-03-17T05:01:49;4.175;;;1.025;;
85939;SDS011;76505;46.706;12.340;2024-03-17T05:02:49;6.575;;;2.3125;;
85939;SDS011;76505;46.706;12.340;2024-03-17T05:03:50;5.5;;;1.975;;
85939;SDS011;76505;46.706;12.340;2024-03-17T05:04:49;8.075;;;2.0125;;
85939;SDS011;76505;46.706;12.340;2024-03-17T05:05:57;4.8625;;;1.5125000000000002;;
85939;SDS011;76505;46.706;12.340;2024-03-17T05:06:50;5.1125;;;1.1875;;
85939;SDS011;76505;46.706;12.340;2024-03-17T05:07:50;3.0875;;;0.8125;;
85939;SDS011;76505;46.706;12.340;2024-03-17T05:08:49;4.2375;;;0.9375;;
85939;SDS011;76505;46.706;12.340;2024-03-17T05:09:50;3.175;;;0.775;;
85939;SDS011;76505;46.706;12.340;2024-03-17T05:10:55;3.825;;;1.0625;;
85939;SDS011;76505;46.706;12.340;2024-03-17T05:11:49;3.5374999999999996;;;0.9;;
85939;SDS011;76505;46.706;12.340;2024-03-17T05:12:49;5.0875;;;1.2750000000000001;;
85939;SDS011;76505;46.706;12.340;2024-03-17T05:13:49;4.0375;;;1.275;;
85939;SDS011;76505;46.706;12.340;2024-03-17T05:14:51;3.15;;;0.8625;;
85939;SDS011;76505;46.706;12.340;2024-03-17T05:15:49;5.0625;;;1.0125000000000002;;
85939;SDS011;76505;46.706;12.340;2024-03-17T05:16:50;4.112500000000001;;;1.0625;;
85939;SDS011;76505;46.706;12.340;2024-03-17T05:17:49;6.7125;;;1.375;;
85939;SDS011;76505;46.706;12.340;2024-03-17T05:18:49;6.050000000000001;;;1.5;;